createdAt,value
2018-12-16T00:00:50.743Z,99.90
2018-12-16T00:03:19.823Z,99.90
2018-12-16T00:05:48.956Z,99.90
2018-12-16T00:08:17.996Z,99.90
2018-12-16T00:10:47.045Z,99.90
2018-12-16T00:13:16.178Z,99.90
2018-12-16T00:15:45.253Z,99.90
2018-12-16T00:18:14.300Z,99.90
2018-12-16T00:20:43.375Z,99.90
2018-12-16T00:23:12.840Z,99.90
2018-12-16T00:25:41.918Z,99.90
2018-12-16T00:28:10.961Z,99.90
2018-12-16T00:30:40.042Z,99.90
2018-12-16T00:33:09.092Z,99.90
2018-12-16T00:35:38.168Z,99.90
2018-12-16T00:38:07.219Z,99.90
2018-12-16T00:40:36.262Z,99.90
2018-12-16T00:43:05.426Z,99.90
2018-12-16T00:45:34.560Z,99.90
2018-12-16T00:48:03.631Z,99.90
2018-12-16T00:50:32.700Z,99.90
2018-12-16T00:53:05.306Z,99.90
2018-12-16T00:55:34.365Z,99.90
2018-12-16T00:58:03.529Z,99.90
2018-12-16T01:00:32.760Z,99.90
2018-12-16T01:03:01.864Z,99.90
2018-12-16T01:05:30.896Z,99.90
2018-12-16T01:07:59.958Z,99.90
2018-12-16T01:10:29.023Z,99.90
2018-12-16T01:12:58.105Z,99.90
2018-12-16T01:15:27.161Z,99.90
2018-12-16T01:17:56.279Z,99.90
2018-12-16T01:20:25.360Z,99.90
2018-12-16T01:22:54.397Z,99.90
2018-12-16T01:25:23.473Z,99.90
2018-12-16T01:27:52.559Z,99.90
2018-12-16T01:30:21.714Z,99.90
2018-12-16T01:32:50.792Z,99.90
2018-12-16T01:35:19.912Z,99.90
2018-12-16T01:37:48.966Z,99.90
2018-12-16T01:40:18.071Z,99.90
2018-12-16T01:42:47.106Z,99.90
2018-12-16T01:45:16.177Z,99.90
2018-12-16T01:47:45.225Z,99.90
2018-12-16T01:50:14.337Z,99.90
2018-12-16T01:52:49.921Z,99.90
2018-12-16T01:55:14.494Z,99.90
2018-12-16T01:57:43.566Z,99.90
2018-12-16T02:00:12.809Z,99.90
2018-12-16T02:02:41.906Z,99.90
2018-12-16T02:05:11.010Z,99.90
2018-12-16T02:07:40.082Z,99.90
2018-12-16T02:10:09.264Z,99.90
2018-12-16T02:12:38.331Z,99.90
2018-12-16T02:15:07.490Z,99.90
2018-12-16T02:17:36.554Z,99.90
2018-12-16T02:20:06.736Z,99.90
2018-12-16T02:22:35.805Z,99.90
2018-12-16T02:25:07.233Z,99.90
2018-12-16T02:27:36.310Z,99.90
2018-12-16T02:30:05.688Z,99.90
2018-12-16T02:32:34.760Z,99.90
2018-12-16T02:35:04.925Z,99.90
2018-12-16T02:37:34.001Z,99.90
2018-12-16T02:40:03.173Z,99.90
2018-12-16T02:42:32.294Z,99.90
2018-12-16T02:45:01.365Z,99.90
2018-12-16T02:47:30.461Z,99.90
2018-12-16T02:49:59.541Z,99.90
2018-12-16T02:52:28.578Z,99.90
2018-12-16T02:54:57.676Z,99.90
2018-12-16T02:57:26.719Z,99.90
2018-12-16T02:59:55.778Z,99.90
2018-12-16T03:02:24.812Z,99.90
2018-12-16T03:04:53.894Z,99.90
2018-12-16T03:07:22.936Z,99.90
2018-12-16T03:09:52.032Z,99.90
2018-12-16T03:12:21.089Z,99.90
2018-12-16T03:14:50.167Z,99.90
2018-12-16T03:17:19.232Z,99.90
2018-12-16T03:19:48.272Z,99.90
2018-12-16T03:22:17.346Z,99.90
2018-12-16T03:24:46.393Z,99.90
2018-12-16T03:27:15.525Z,99.90
2018-12-16T03:29:44.613Z,99.90
2018-12-16T03:32:13.743Z,99.90
2018-12-16T03:34:42.798Z,99.90
2018-12-16T03:37:11.867Z,99.90
2018-12-16T03:39:40.907Z,99.90
2018-12-16T03:42:09.970Z,99.90
2018-12-16T03:44:39.001Z,99.90
2018-12-16T03:47:08.166Z,99.90
2018-12-16T03:49:37.261Z,99.90
2018-12-16T03:52:07.351Z,99.70
2018-12-16T03:54:36.392Z,99.60
2018-12-16T03:57:05.450Z,99.60
2018-12-16T03:59:34.490Z,99.50
2018-12-16T04:02:03.582Z,99.50
2018-12-16T04:04:32.891Z,99.50
2018-12-16T04:07:01.954Z,99.50
2018-12-16T04:09:30.996Z,99.60
2018-12-16T04:12:00.062Z,99.60
2018-12-16T04:14:29.093Z,99.70
2018-12-16T04:16:58.160Z,99.90
2018-12-16T04:19:27.193Z,99.90
2018-12-16T04:21:56.269Z,99.90
2018-12-16T04:24:25.390Z,99.90
2018-12-16T04:26:54.526Z,99.90
2018-12-16T04:29:23.589Z,99.90
2018-12-16T04:31:52.649Z,99.90
2018-12-16T04:34:21.686Z,99.90
2018-12-16T04:36:50.758Z,99.90
2018-12-16T04:39:19.804Z,99.90
2018-12-16T04:41:48.859Z,99.90
2018-12-16T04:44:17.926Z,99.90
2018-12-16T04:46:46.960Z,99.90
2018-12-16T04:49:16.027Z,99.90
2018-12-16T04:51:45.107Z,99.90
2018-12-16T04:54:14.142Z,99.90
2018-12-16T04:56:43.209Z,99.90
2018-12-16T04:59:12.268Z,99.90
2018-12-16T05:01:41.313Z,99.90
2018-12-16T05:04:10.381Z,99.90
2018-12-16T05:06:39.521Z,99.90
2018-12-16T05:09:08.570Z,99.90
2018-12-16T05:11:37.652Z,99.90
2018-12-16T05:14:06.738Z,99.90
2018-12-16T05:16:35.784Z,99.90
2018-12-16T05:19:04.832Z,99.90
2018-12-16T05:21:33.907Z,99.90
2018-12-16T05:24:02.966Z,99.90
2018-12-16T05:26:32.028Z,99.90
2018-12-16T05:29:01.065Z,99.90
2018-12-16T05:31:30.138Z,99.90
2018-12-16T05:33:59.252Z,99.90
2018-12-16T05:36:28.426Z,99.90
2018-12-16T05:38:57.470Z,99.90
2018-12-16T05:41:26.517Z,99.90
2018-12-16T05:43:55.659Z,99.90
2018-12-16T05:46:24.735Z,99.90
2018-12-16T05:48:53.806Z,99.90
2018-12-16T05:51:22.863Z,99.90
2018-12-16T05:53:51.913Z,99.70
2018-12-16T05:56:20.946Z,99.50
2018-12-16T05:58:50.012Z,99.50
2018-12-16T06:01:19.068Z,99.40
2018-12-16T06:03:48.137Z,99.30
2018-12-16T06:06:17.207Z,99.30
2018-12-16T06:08:46.249Z,99.20
2018-12-16T06:11:15.311Z,99.20
2018-12-16T06:13:44.390Z,99.10
2018-12-16T06:16:13.433Z,99.10
2018-12-16T06:18:42.506Z,99.10
2018-12-16T06:21:11.566Z,99.10
2018-12-16T06:23:40.628Z,99.20
2018-12-16T06:26:09.670Z,99.30
2018-12-16T06:28:38.735Z,99.30
2018-12-16T06:31:07.808Z,99.40
2018-12-16T06:33:36.911Z,99.50
2018-12-16T06:36:05.973Z,99.40
2018-12-16T06:38:35.015Z,99.30
2018-12-16T06:41:04.098Z,99.00
2018-12-16T06:43:33.157Z,98.90
2018-12-16T06:46:02.251Z,98.90
2018-12-16T06:48:31.284Z,98.80
2018-12-16T06:51:00.329Z,98.80
2018-12-16T06:53:29.395Z,98.80
2018-12-16T06:55:58.425Z,98.80
2018-12-16T06:58:27.630Z,98.70
2018-12-16T07:00:56.663Z,98.70
2018-12-16T07:03:25.734Z,98.70
2018-12-16T07:05:54.802Z,98.70
2018-12-16T07:08:23.864Z,98.80
2018-12-16T07:10:52.943Z,98.80
2018-12-16T07:13:21.988Z,98.70
2018-12-16T07:15:51.063Z,98.80
2018-12-16T07:18:20.147Z,98.60
2018-12-16T07:20:49.351Z,98.60
2018-12-16T07:23:18.413Z,98.50
2018-12-16T07:25:47.496Z,98.50
2018-12-16T07:28:16.766Z,98.60
2018-12-16T07:30:45.998Z,98.70
2018-12-16T07:33:17.004Z,98.70
2018-12-16T07:35:46.145Z,98.60
2018-12-16T07:38:15.257Z,98.70
2018-12-16T07:40:44.454Z,98.90
2018-12-16T07:43:13.493Z,99.00
2018-12-16T07:45:42.638Z,99.00
2018-12-16T07:48:11.701Z,98.80
2018-12-16T07:50:40.940Z,98.70
2018-12-16T07:53:10.024Z,98.00
2018-12-16T07:55:39.242Z,97.70
2018-12-16T07:58:08.284Z,97.60
2018-12-16T08:00:38.256Z,97.00
2018-12-16T08:03:07.637Z,96.80
2018-12-16T08:05:36.738Z,97.20
2018-12-16T08:08:05.787Z,97.30
2018-12-16T08:10:34.927Z,97.00
2018-12-16T08:13:04.015Z,97.10
2018-12-16T08:15:33.088Z,97.10
2018-12-16T08:18:02.141Z,97.10
2018-12-16T08:20:31.195Z,96.80
2018-12-16T08:23:00.254Z,96.90
2018-12-16T08:25:29.348Z,97.00
2018-12-16T08:27:58.418Z,96.90
2018-12-16T08:30:27.569Z,96.90
2018-12-16T08:32:56.613Z,97.10
2018-12-16T08:35:25.655Z,96.80
2018-12-16T08:37:54.730Z,96.60
2018-12-16T08:40:24.413Z,96.80
2018-12-16T08:42:53.481Z,96.50
2018-12-16T08:45:22.545Z,96.50
2018-12-16T08:47:51.595Z,96.40
2018-12-16T08:50:20.662Z,96.40
2018-12-16T08:52:49.739Z,96.30
2018-12-16T08:55:18.797Z,96.60
2018-12-16T08:57:47.861Z,96.80
2018-12-16T09:00:16.918Z,96.60
2018-12-16T09:02:46.006Z,96.30
2018-12-16T09:05:15.099Z,96.10
2018-12-16T09:07:45.061Z,95.80
2018-12-16T09:10:14.205Z,96.10
2018-12-16T09:12:43.270Z,96.00
2018-12-16T09:15:14.193Z,96.00
2018-12-16T09:17:43.370Z,96.20
2018-12-16T09:20:12.399Z,96.00
2018-12-16T09:22:41.463Z,96.10
2018-12-16T09:25:10.609Z,95.90
2018-12-16T09:27:39.733Z,95.80
2018-12-16T09:30:10.668Z,95.70
2018-12-16T09:32:39.743Z,95.70
2018-12-16T09:35:08.857Z,95.80
2018-12-16T09:37:37.908Z,95.80
2018-12-16T09:40:07.405Z,95.80
2018-12-16T09:42:36.457Z,95.80
2018-12-16T09:45:06.417Z,95.70
2018-12-16T09:47:35.872Z,95.70
2018-12-16T09:50:05.434Z,95.30
2018-12-16T09:52:34.526Z,94.90
2018-12-16T09:55:04.510Z,94.80
2018-12-16T09:57:33.533Z,94.80
2018-12-16T10:00:02.621Z,95.00
2018-12-16T10:02:31.673Z,95.10
2018-12-16T10:05:00.742Z,94.90
2018-12-16T10:07:29.796Z,95.00
2018-12-16T10:09:58.841Z,94.80
2018-12-16T10:12:27.926Z,94.60
2018-12-16T10:14:57.114Z,94.40
2018-12-16T10:17:26.152Z,93.70
2018-12-16T10:19:55.206Z,93.60
2018-12-16T10:22:24.244Z,93.30
2018-12-16T10:24:53.314Z,92.60
2018-12-16T10:27:22.381Z,92.40
2018-12-16T10:29:51.608Z,92.70
2018-12-16T10:32:20.665Z,92.80
2018-12-16T10:34:49.689Z,92.70
2018-12-16T10:37:18.814Z,92.30
2018-12-16T10:39:47.897Z,92.30
2018-12-16T10:42:16.982Z,92.20
2018-12-16T10:44:46.015Z,92.20
2018-12-16T10:47:15.045Z,92.60
2018-12-16T10:49:44.099Z,92.60
2018-12-16T10:52:13.146Z,92.60
2018-12-16T10:54:42.209Z,92.70
2018-12-16T10:57:11.233Z,92.60
2018-12-16T10:59:40.266Z,92.00
2018-12-16T11:02:09.316Z,91.80
2018-12-16T11:04:38.348Z,91.40
2018-12-16T11:07:07.412Z,91.40
2018-12-16T11:09:36.430Z,91.50
2018-12-16T11:12:05.558Z,91.10
2018-12-16T11:14:34.589Z,91.30
2018-12-16T11:17:03.728Z,90.80
2018-12-16T11:19:32.774Z,90.90
2018-12-16T11:22:01.911Z,91.40
2018-12-16T11:24:31.193Z,91.70
2018-12-16T11:27:02.157Z,91.80
2018-12-16T11:29:31.277Z,92.10
2018-12-16T11:32:00.318Z,92.10
2018-12-16T11:34:30.289Z,92.00
2018-12-16T11:36:59.333Z,91.60
2018-12-16T11:39:28.403Z,91.10
2018-12-16T11:41:57.417Z,91.20
2018-12-16T11:44:27.337Z,91.30
2018-12-16T11:46:56.517Z,91.10
2018-12-16T11:49:25.590Z,91.00
2018-12-16T11:51:54.720Z,91.40
2018-12-16T11:54:23.755Z,91.20
2018-12-16T11:56:52.816Z,91.30
2018-12-16T11:59:21.860Z,90.70
2018-12-16T12:01:50.922Z,90.70
2018-12-16T12:04:19.979Z,90.80
2018-12-16T12:06:49.016Z,90.20
2018-12-16T12:09:18.070Z,89.80
2018-12-16T12:11:47.117Z,89.80
2018-12-16T12:14:16.168Z,88.80
2018-12-16T12:16:45.246Z,88.70
2018-12-16T12:19:14.280Z,89.30
2018-12-16T12:21:43.336Z,88.90
2018-12-16T12:24:12.404Z,89.40
2018-12-16T12:26:41.445Z,89.10
2018-12-16T12:29:10.505Z,88.40
2018-12-16T12:31:39.522Z,90.30
2018-12-16T12:34:08.588Z,90.30
2018-12-16T12:36:37.608Z,90.30
2018-12-16T12:39:06.769Z,90.20
2018-12-16T12:41:35.821Z,89.20
2018-12-16T12:44:04.914Z,89.10
2018-12-16T12:46:33.972Z,89.50
2018-12-16T12:49:03.001Z,89.60
2018-12-16T12:51:32.078Z,89.30
2018-12-16T12:54:01.150Z,86.90
2018-12-16T12:56:30.180Z,87.00
2018-12-16T12:58:59.214Z,85.70
2018-12-16T13:01:28.261Z,86.00
2018-12-16T13:03:57.357Z,86.40
2018-12-16T13:06:26.390Z,85.90
2018-12-16T13:08:55.451Z,86.40
2018-12-16T13:11:24.515Z,86.40
2018-12-16T13:13:53.659Z,86.60
2018-12-16T13:16:22.768Z,87.20
2018-12-16T13:18:51.824Z,87.00
2018-12-16T13:21:20.856Z,87.90
2018-12-16T13:23:49.925Z,88.00
2018-12-16T13:26:19.110Z,89.40
2018-12-16T13:28:48.169Z,89.00
2018-12-16T13:31:17.237Z,89.20
2018-12-16T13:33:46.266Z,90.10
2018-12-16T13:36:15.325Z,90.30
2018-12-16T13:38:44.799Z,90.70
2018-12-16T13:41:14.902Z,90.80
2018-12-16T13:43:43.942Z,90.90
2018-12-16T13:46:13.825Z,91.10
2018-12-16T13:48:42.853Z,91.40
2018-12-16T13:51:11.917Z,91.40
2018-12-16T13:53:40.941Z,91.60
2018-12-16T13:56:09.978Z,91.90
2018-12-16T13:58:39.015Z,91.90
2018-12-16T14:01:08.749Z,91.60
2018-12-16T14:03:37.780Z,91.80
2018-12-16T14:06:06.824Z,91.70
2018-12-16T14:08:36.243Z,91.80
2018-12-16T14:11:05.412Z,92.30
2018-12-16T14:13:34.545Z,93.10
2018-12-16T14:16:03.799Z,93.80
2018-12-16T14:18:32.840Z,94.20
2018-12-16T14:21:01.912Z,94.50
2018-12-16T14:23:30.948Z,94.90
2018-12-16T14:26:00.004Z,95.20
2018-12-16T14:28:29.068Z,95.50
2018-12-16T14:30:58.101Z,95.80
2018-12-16T14:33:27.213Z,96.00
2018-12-16T14:35:56.280Z,96.20
2018-12-16T14:38:25.574Z,96.40
2018-12-16T14:40:54.637Z,96.50
2018-12-16T14:43:23.661Z,96.60
2018-12-16T14:45:52.695Z,96.90
2018-12-16T14:48:21.764Z,96.90
2018-12-16T14:50:50.798Z,97.00
2018-12-16T14:53:20.477Z,97.10
2018-12-16T14:55:55.227Z,97.30
2018-12-16T14:58:20.546Z,97.20
2018-12-16T15:00:49.603Z,97.40
2018-12-16T15:03:18.633Z,97.60
2018-12-16T15:05:47.705Z,97.70
2018-12-16T15:08:16.727Z,97.90
2018-12-16T15:10:45.796Z,98.20
2018-12-16T15:13:14.855Z,98.30
2018-12-16T15:15:43.915Z,98.30
2018-12-16T15:18:12.950Z,98.30
2018-12-16T15:20:42.016Z,98.20
2018-12-16T15:23:11.089Z,98.10
2018-12-16T15:25:40.136Z,98.10
2018-12-16T15:28:09.181Z,98.30
2018-12-16T15:30:38.319Z,98.30
2018-12-16T15:33:07.364Z,98.30
2018-12-16T15:35:36.427Z,98.30
2018-12-16T15:38:05.493Z,98.40
2018-12-16T15:40:34.524Z,98.30
2018-12-16T15:43:03.630Z,98.60
2018-12-16T15:45:32.734Z,98.30
2018-12-16T15:48:01.850Z,98.20
2018-12-16T15:50:30.924Z,98.20
2018-12-16T15:53:00.299Z,98.20
2018-12-16T15:55:29.378Z,98.30
2018-12-16T15:57:58.414Z,98.10
2018-12-16T16:00:27.498Z,98.10
2018-12-16T16:02:56.536Z,98.10
2018-12-16T16:05:25.606Z,98.40
2018-12-16T16:07:54.747Z,98.30
2018-12-16T16:10:23.838Z,98.40
2018-12-16T16:12:52.910Z,98.40
2018-12-16T16:15:21.959Z,98.40
2018-12-16T16:17:51.051Z,98.50
2018-12-16T16:20:20.098Z,98.70
2018-12-16T16:22:49.188Z,98.70
2018-12-16T16:25:20.361Z,98.80
2018-12-16T16:27:49.406Z,98.80
2018-12-16T16:30:18.444Z,98.80
2018-12-16T16:32:47.505Z,98.70
2018-12-16T16:35:16.557Z,98.60
2018-12-16T16:37:45.776Z,98.40
2018-12-16T16:40:14.850Z,98.70
2018-12-16T16:42:43.885Z,98.90
2018-12-16T16:45:13.004Z,98.80
2018-12-16T16:47:42.074Z,98.70
2018-12-16T16:50:11.181Z,98.40
2018-12-16T16:52:40.246Z,98.20
2018-12-16T16:55:09.315Z,98.20
2018-12-16T16:57:38.398Z,98.20
2018-12-16T17:00:08.692Z,98.20
2018-12-16T17:02:37.733Z,98.40
2018-12-16T17:05:06.949Z,98.40
2018-12-16T17:07:36.020Z,98.40
2018-12-16T17:10:07.010Z,98.50
2018-12-16T17:12:36.058Z,98.50
2018-12-16T17:15:05.988Z,98.50
2018-12-16T17:17:35.021Z,98.50
2018-12-16T17:20:05.290Z,98.60
2018-12-16T17:22:34.331Z,98.70
2018-12-16T17:25:03.521Z,98.60
2018-12-16T17:27:32.597Z,98.70
2018-12-16T17:30:02.291Z,98.90
2018-12-16T17:32:31.553Z,99.00
2018-12-16T17:35:00.661Z,99.10
2018-12-16T17:37:29.701Z,99.10
2018-12-16T17:39:58.736Z,99.10
2018-12-16T17:42:27.810Z,99.20
2018-12-16T17:44:56.853Z,99.20
2018-12-16T17:47:25.922Z,99.30
2018-12-16T17:49:55.000Z,99.50
2018-12-16T17:52:24.147Z,99.50
2018-12-16T17:54:53.172Z,99.40
2018-12-16T17:57:22.253Z,99.40
2018-12-16T17:59:51.300Z,99.40
2018-12-16T18:02:20.469Z,99.50
2018-12-16T18:04:49.552Z,99.50
2018-12-16T18:07:18.614Z,99.60
2018-12-16T18:09:47.696Z,99.60
2018-12-16T18:12:16.741Z,99.70
2018-12-16T18:14:45.789Z,99.70
2018-12-16T18:17:14.842Z,99.70
2018-12-16T18:19:43.910Z,99.70
2018-12-16T18:22:14.133Z,99.60
2018-12-16T18:24:43.422Z,99.70
2018-12-16T18:27:12.493Z,99.70
2018-12-16T18:29:41.537Z,99.80
2018-12-16T18:32:10.604Z,99.70
2018-12-16T18:34:39.686Z,99.80
2018-12-16T18:37:08.717Z,99.90
2018-12-16T18:39:37.785Z,99.90
2018-12-16T18:42:07.009Z,99.90
2018-12-16T18:44:36.089Z,99.80
2018-12-16T18:47:06.918Z,99.40
2018-12-16T18:49:35.986Z,99.20
2018-12-16T18:52:05.036Z,99.30
2018-12-16T18:54:35.019Z,99.40
2018-12-16T18:57:07.291Z,99.50
2018-12-16T18:59:35.214Z,99.60
2018-12-16T19:02:04.345Z,99.60
2018-12-16T19:04:35.277Z,99.60
2018-12-16T19:07:04.472Z,99.60
2018-12-16T19:09:33.588Z,99.60
2018-12-16T19:12:02.702Z,99.70
2018-12-16T19:14:32.275Z,99.80
2018-12-16T19:17:01.381Z,99.80
2018-12-16T19:19:30.439Z,99.80
2018-12-16T19:21:59.485Z,99.90
2018-12-16T19:24:28.559Z,99.90
2018-12-16T19:26:58.341Z,99.90
2018-12-16T19:29:27.961Z,99.90
2018-12-16T19:31:57.038Z,99.90
2018-12-16T19:34:26.077Z,99.90
2018-12-16T19:36:55.150Z,99.90
2018-12-16T19:39:24.218Z,99.90
2018-12-16T19:41:53.269Z,99.90
2018-12-16T19:44:22.339Z,99.90
2018-12-16T19:46:51.420Z,99.90
2018-12-16T19:49:20.511Z,99.90
2018-12-16T19:51:49.566Z,99.90
2018-12-16T19:54:19.084Z,99.90
2018-12-16T19:56:48.154Z,99.90
2018-12-16T19:59:17.245Z,99.40
2018-12-16T20:01:46.299Z,99.20
2018-12-16T20:04:17.413Z,99.40
2018-12-16T20:06:46.592Z,99.40
2018-12-16T20:09:15.892Z,99.20
2018-12-16T20:11:44.963Z,99.30
2018-12-16T20:14:14.058Z,99.20
2018-12-16T20:16:43.296Z,99.20
2018-12-16T20:19:12.355Z,99.50
2018-12-16T20:21:41.535Z,99.60
2018-12-16T20:24:10.652Z,99.70
2018-12-16T20:26:39.997Z,99.70
2018-12-16T20:29:09.411Z,99.60
2018-12-16T20:31:38.775Z,99.80
2018-12-16T20:34:07.857Z,99.70
2018-12-16T20:36:36.904Z,99.40
2018-12-16T20:39:06.995Z,99.30
2018-12-16T20:41:36.314Z,99.20
2018-12-16T20:44:05.414Z,99.20
2018-12-16T20:46:34.494Z,99.30
2018-12-16T20:49:03.826Z,99.60
2018-12-16T20:51:32.889Z,99.70
2018-12-16T20:54:01.984Z,99.40
2018-12-16T20:56:31.022Z,99.10
2018-12-16T20:59:00.175Z,99.30
2018-12-16T21:01:29.246Z,99.40
2018-12-16T21:03:58.325Z,99.50
2018-12-16T21:06:27.374Z,99.70
2018-12-16T21:08:58.432Z,99.90
2018-12-16T21:11:32.970Z,99.90
2018-12-16T21:14:07.602Z,99.90
2018-12-16T21:16:42.140Z,99.90
2018-12-16T21:19:15.428Z,99.90
2018-12-16T21:21:44.478Z,99.80
2018-12-16T21:24:13.626Z,99.70
2018-12-16T21:26:43.266Z,99.60
2018-12-16T21:29:12.356Z,99.60
2018-12-16T21:31:41.445Z,99.60
2018-12-16T21:34:10.486Z,99.60
2018-12-16T21:36:39.532Z,99.60
2018-12-16T21:39:08.594Z,99.60
2018-12-16T21:41:37.677Z,99.70
2018-12-16T21:44:06.713Z,99.60
2018-12-16T21:46:35.790Z,99.80
2018-12-16T21:49:04.925Z,99.80
2018-12-16T21:51:33.998Z,99.90
2018-12-16T21:54:03.078Z,99.90
2018-12-16T21:56:32.130Z,99.90
2018-12-16T21:59:01.213Z,99.90
2018-12-16T22:01:30.949Z,99.90
2018-12-16T22:04:00.026Z,99.90
2018-12-16T22:06:30.100Z,99.90
2018-12-16T22:08:59.164Z,99.90
2018-12-16T22:11:28.219Z,99.90
2018-12-16T22:13:57.285Z,99.90
2018-12-16T22:16:26.360Z,99.90
2018-12-16T22:18:55.410Z,99.90
2018-12-16T22:21:24.487Z,99.90
2018-12-16T22:23:53.529Z,99.90
2018-12-16T22:26:22.668Z,99.90
2018-12-16T22:28:51.786Z,99.80
2018-12-16T22:31:20.893Z,99.70
2018-12-16T22:33:50.028Z,99.70
2018-12-16T22:36:19.100Z,99.60
2018-12-16T22:38:48.430Z,99.40
2018-12-16T22:41:17.491Z,99.20
2018-12-16T22:43:47.001Z,99.20
2018-12-16T22:46:16.433Z,99.40
2018-12-16T22:48:45.504Z,99.10
2018-12-16T22:51:14.589Z,99.10
2018-12-16T22:53:43.620Z,99.40
2018-12-16T22:56:12.690Z,99.40
2018-12-16T22:58:41.733Z,99.20
2018-12-16T23:01:16.961Z,99.30
2018-12-16T23:03:46.001Z,99.10
2018-12-16T23:06:15.071Z,99.10
2018-12-16T23:08:44.129Z,99.20
2018-12-16T23:11:13.241Z,99.30
2018-12-16T23:13:42.284Z,99.40
2018-12-16T23:16:11.322Z,99.40
2018-12-16T23:18:40.860Z,99.40
2018-12-16T23:21:11.212Z,99.40
2018-12-16T23:23:40.455Z,99.60
2018-12-16T23:26:09.525Z,99.70
2018-12-16T23:28:38.575Z,99.80
2018-12-16T23:31:07.712Z,99.70
2018-12-16T23:33:36.758Z,99.60
2018-12-16T23:36:05.885Z,99.30
2018-12-16T23:38:34.945Z,99.20
2018-12-16T23:41:04.073Z,99.00
2018-12-16T23:43:33.115Z,99.00
2018-12-16T23:46:02.193Z,99.20
2018-12-16T23:48:31.230Z,99.20
2018-12-16T23:51:00.270Z,99.20
2018-12-16T23:53:29.336Z,99.30
2018-12-16T23:55:58.372Z,99.20
2018-12-16T23:58:27.449Z,99.20
